tititudorancea.com
Station Historical Data
Daily Summary for May 10, 2018 Units:  Metric    English   Both
« Previous Day
Next Day »
Daily Weekly Monthly Yearly Custom
  High: Low: Average:
Temperature: -17.8 °C 5.1 °C 6.9 °C
Dew Point: -17.8 °C 2.6 °C 4.3 °C
Humidity: Humidity % 66 % 83 %
Wind Speed: 0 km/h 0 km/h 12.2 km/h
Wind Gust: 0 km/h - -
Wind:- - West
Pressure: 0 hPa 1009.4 hPa -
Precipitation: 7.87 mm    
Historical Graphs
 
 
Ararat weather Find more about Weather in Ararat, AU


 



 


Tabular Data for May 10, 2018
Time Temperature Dew Point Pressure Wind Wind Speed Wind Gust Humidity Rainfall Rate (Hourly)
-17.8 °C -17.8 °C 0 hPa Calm     Humidity % 0 mm
00:04 9.9 °C 7.4 °C 1012.1 hPa SW 10.5 km/h 18.5 km/h 84 % 0 mm
00:09 9.9 °C 7.4 °C 1012.1 hPa SW 9 km/h 13 km/h 84 % 0 mm
00:14 9.7 °C 7.3 °C 1012.4 hPa SW 12.2 km/h 13 km/h 85 % 0 mm
00:19 9.5 °C 7.3 °C 1012.4 hPa SSW 8.5 km/h 14.8 km/h 86 % 0 mm
00:24 9.3 °C 7.2 °C 1012.4 hPa North 7.9 km/h 20.4 km/h 87 % 0.25 mm
00:29 9.1 °C 7.2 °C 1012.4 hPa SW 9.8 km/h 16.7 km/h 88 % 0.25 mm
00:34 8.9 °C 7.2 °C 1012.4 hPa North 8.4 km/h 11.1 km/h 89 % 0.25 mm
00:39 8.9 °C 7.3 °C 1012.4 hPa WSW 8.4 km/h 8.4 km/h 90 % 0.51 mm
00:44 8.9 °C 7.3 °C 1012.4 hPa WSW 8 km/h 13 km/h 90 % 0.51 mm
00:49 8.9 °C 7.4 °C 1012.4 hPa WSW 6.1 km/h 7.4 km/h 90 % 0.51 mm
00:54 8.9 °C 7.2 °C 1012.4 hPa WSW 7.9 km/h 8 km/h 89 % 0.51 mm
00:59 8.9 °C 7.2 °C 1012.4 hPa SW 13.4 km/h 18.5 km/h 89 % 0.51 mm
01:04 8.8 °C 6.7 °C 1012.4 hPa SW 27.4 km/h 30.6 km/h 87 % 0.51 mm
01:09 8.6 °C 6.6 °C 1012.4 hPa WSW 17.9 km/h 25.9 km/h 87 % 0.51 mm
01:14 8.5 °C 6.3 °C 1012.4 hPa WSW 15.1 km/h 30.6 km/h 86 % 0.51 mm
01:19 8.4 °C 5.9 °C 1012.4 hPa WSW 19 km/h 20.9 km/h 84 % 0.51 mm
01:25 8.4 °C 5.5 °C 1012.4 hPa SW 16.1 km/h 22.2 km/h 82 % 0.51 mm
01:30 8.4 °C 5.4 °C 1012.4 hPa SW 13.5 km/h 22.5 km/h 81 % 0.51 mm
01:35 8.4 °C 5.4 °C 1012.8 hPa SW 10.1 km/h 19.3 km/h 81 % 0.51 mm
01:40 8.4 °C 5.4 °C 1012.8 hPa WSW 14.3 km/h 14.3 km/h 81 % 0.25 mm
01:45 8.4 °C 5.1 °C 1012.8 hPa WSW 12.7 km/h 25.9 km/h 80 % 0.25 mm
01:50 8.3 °C 5.1 °C 1012.8 hPa SW 11.3 km/h 17.7 km/h 80 % 0.25 mm
01:55 8.2 °C 5 °C 1012.4 hPa SW 2.7 km/h 7.4 km/h 80 % 0.25 mm
02:00 8.1 °C 4.9 °C 1012.4 hPa SW 11.3 km/h 16.7 km/h 80 % 0.25 mm
02:05 8.1 °C 4.8 °C 1012.4 hPa SW 10.6 km/h 18.5 km/h 80 % 0 mm
02:09 8 °C 4.8 °C 1012.4 hPa SSW 9.3 km/h 11.1 km/h 80 % 0 mm
02:14 7.9 °C 4.7 °C 1012.4 hPa SW 7.2 km/h 14.8 km/h 80 % 0 mm
02:20 7.9 °C 4.4 °C 1012.4 hPa SW 7.2 km/h 11.1 km/h 79 % 0 mm
02:24 7.8 °C 4.4 °C 1012.1 hPa WSW 8.2 km/h 11.1 km/h 79 % 0 mm
02:30 7.7 °C 4.1 °C 1012.1 hPa SW 12.1 km/h 12.1 km/h 78 % 0 mm
02:35 7.7 °C 4.1 °C 1012.1 hPa WSW 13.5 km/h 24.1 km/h 78 % 0 mm
02:40 7.7 °C 4.1 °C 1012.1 hPa WSW 10.5 km/h 18.5 km/h 78 % 0 mm
02:45 7.6 °C 4 °C 1011.7 hPa WSW 18.2 km/h 19.3 km/h 78 % 0 mm
02:50 7.6 °C 3.9 °C 1011.7 hPa WSW 16.7 km/h 24.1 km/h 78 % 0 mm
02:55 7.5 °C 4.1 °C 1011.7 hPa WSW 14.3 km/h 18.5 km/h 79 % 0 mm
03:00 7.4 °C 4 °C 1011.7 hPa West 10.8 km/h 20.4 km/h 79 % 0 mm
03:05 7.4 °C 4 °C 1011.7 hPa West 14.3 km/h 18.5 km/h 79 % 0 mm
03:09 7.4 °C 4.1 °C 1011.7 hPa WSW 15.6 km/h 20.9 km/h 79 % 0 mm
03:15 7.4 °C 4.1 °C 1011.7 hPa West 5.6 km/h 16.7 km/h 79 % 0 mm
03:20 7.4 °C 4 °C 1011.7 hPa WSW 7.2 km/h 13 km/h 79 % 0 mm
03:25 7.3 °C 4.1 °C 1011.7 hPa West 7.7 km/h 9.7 km/h 80 % 0 mm
03:30 7.4 °C 4.2 °C 1011.7 hPa West 7.2 km/h 16.7 km/h 80 % 0 mm
03:35 7.4 °C 4.1 °C 1011.7 hPa West 10.3 km/h 13 km/h 79 % 0 mm
03:40 7.4 °C 4.1 °C 1012.1 hPa WSW 6 km/h 9.3 km/h 79 % 0 mm
03:45 7.4 °C 4 °C 1012.1 hPa West 11.9 km/h 13 km/h 79 % 0 mm
03:50 7.5 °C 3.9 °C 1011.7 hPa WSW 5.8 km/h 11.1 km/h 78 % 0 mm
03:55 7.5 °C 3.9 °C 1012.1 hPa WSW 10.9 km/h 10.9 km/h 78 % 0 mm
04:00 7.5 °C 3.9 °C 1012.1 hPa West 12.1 km/h 19.3 km/h 78 % 0 mm
04:05 7.5 °C 3.9 °C 1011.7 hPa WSW 10 km/h 14.8 km/h 78 % 0 mm
04:10 7.5 °C 3.9 °C 1011.7 hPa WSW 11.7 km/h 18.5 km/h 78 % 0 mm
04:15 7.4 °C 3.8 °C 1011.7 hPa West 12.2 km/h 18.5 km/h 78 % 0 mm
04:20 7.4 °C 3.8 °C 1011.4 hPa West 17.4 km/h 20.4 km/h 78 % 0 mm
04:25 7.4 °C 3.7 °C 1011.4 hPa WSW 12.7 km/h 20.4 km/h 77 % 0 mm
04:30 7.4 °C 3.8 °C 1011.4 hPa West 13.8 km/h 18.5 km/h 78 % 0 mm
04:35 7.4 °C 3.8 °C 1011.4 hPa West 14.5 km/h 20.4 km/h 78 % 0 mm
04:40 7.3 °C 3.7 °C 1011.4 hPa WSW 17.5 km/h 24.1 km/h 78 % 0 mm
04:45 7.3 °C 3.7 °C 1011.4 hPa WSW 14.8 km/h 20.4 km/h 78 % 0 mm
04:50 7.2 °C 3.7 °C 1011.4 hPa North 11.6 km/h 14.8 km/h 78 % 0 mm
04:55 7.3 °C 3.7 °C 1011.4 hPa West 15.3 km/h 18.5 km/h 78 % 0 mm
05:00 7.2 °C 3.4 °C 1011.4 hPa WSW 9.5 km/h 14.8 km/h 77 % 0 mm
05:05 7.2 °C 3.4 °C 1011.4 hPa West 7.7 km/h 11.1 km/h 77 % 0 mm
05:10 7.2 °C 3.4 °C 1011.4 hPa West 12.4 km/h 18.5 km/h 77 % 0 mm
05:15 7.2 °C 3.4 °C 1011.4 hPa WSW 13 km/h 18.5 km/h 77 % 0 mm
05:20 7.2 °C 3.3 °C 1011.4 hPa WSW 11.1 km/h 14.8 km/h 76 % 0 mm
05:25 7.2 °C 3.3 °C 1011.4 hPa WSW 11.1 km/h 14.8 km/h 76 % 0 mm
05:30 7.2 °C 3.2 °C 1011.4 hPa North 9.3 km/h 14.5 km/h 76 % 0 mm
05:35 7.3 °C 3.4 °C 1011.4 hPa West 16.7 km/h 24.1 km/h 76 % 0 mm
05:40 7.4 °C 3.6 °C 1011.7 hPa WSW 12.7 km/h 18.5 km/h 77 % 0 mm
05:45 7.4 °C 3.6 °C 1011.7 hPa WSW 10.5 km/h 16.1 km/h 77 % 0 mm
05:50 7.3 °C 3.7 °C 1011.7 hPa West 15.1 km/h 18.5 km/h 78 % 0 mm
05:55 7.4 °C 3.8 °C 1011.7 hPa West 13.4 km/h 18.5 km/h 78 % 0 mm
06:00 7.4 °C 3.8 °C 1011.7 hPa North 9.7 km/h 16.7 km/h 78 % 0 mm
06:05 7.3 °C 3.9 °C 1011.7 hPa West 8.5 km/h 11.1 km/h 79 % 0 mm
06:10 7.2 °C 3.8 °C 1011.7 hPa North 6.1 km/h 14.8 km/h 79 % 0 mm
06:15 7.3 °C 3.9 °C 1011.7 hPa North 8.7 km/h 13 km/h 79 % 0 mm
06:20 7.3 °C 3.9 °C 1011.7 hPa North 9 km/h 11.1 km/h 79 % 0 mm
06:25 7.2 °C 3.8 °C 1011.4 hPa West 6.9 km/h 11.3 km/h 79 % 0 mm
06:30 7.1 °C 3.7 °C 1011.4 hPa West 14.3 km/h 18.5 km/h 79 % 0 mm
06:35 7.1 °C 3.8 °C 1011.4 hPa North 10.5 km/h 14.8 km/h 80 % 0 mm
06:40 7 °C 3.9 °C 1011.4 hPa West 10.1 km/h 11.1 km/h 81 % 0 mm
06:45 7 °C 3.9 °C 1011.4 hPa WNW 9.2 km/h 13 km/h 81 % 0 mm
06:50 6.9 °C 3.9 °C 1011.4 hPa WNW 8.5 km/h 13 km/h 81 % 0 mm
06:55 6.9 °C 3.8 °C 1011.4 hPa WNW 7.9 km/h 11.1 km/h 81 % 0 mm
07:00 6.9 °C 3.8 °C 1011.4 hPa WNW 8.9 km/h 11.1 km/h 81 % 0 mm
07:05 6.8 °C 3.8 °C 1011.4 hPa West 9.8 km/h 13 km/h 81 % 0 mm
07:10 6.8 °C 3.7 °C 1011.4 hPa West 4.5 km/h 7.4 km/h 81 % 0 mm
07:15 6.7 °C 3.7 °C 1011.4 hPa West 12.9 km/h 16.7 km/h 81 % 0 mm
07:20 6.8 °C 3.8 °C 1011.4 hPa West 8.7 km/h 11.3 km/h 81 % 0 mm
07:25 6.9 °C 3.8 °C 1011.4 hPa West 8.2 km/h 11.1 km/h 81 % 0 mm
07:30 6.9 °C 4.1 °C 1011.4 hPa West 8.4 km/h 13 km/h 82 % 0 mm
07:35 7.1 °C 4 °C 1011.4 hPa North 9.5 km/h 14.8 km/h 81 % 0 mm
07:40 7.2 °C 4.1 °C 1011.4 hPa West 9.8 km/h 16.7 km/h 81 % 0 mm
07:45 7.2 °C 4.3 °C 1011.7 hPa West 10.6 km/h 14.8 km/h 82 % 0 mm
07:50 7.1 °C 4.2 °C 1011.7 hPa West 11.4 km/h 16.7 km/h 82 % 0 mm
07:55 7 °C 4.3 °C 1011.7 hPa North 10.5 km/h 13 km/h 83 % 0 mm
08:00 6.8 °C 4.1 °C 1011.7 hPa North 11.6 km/h 18.5 km/h 83 % 0.25 mm
08:05 6.5 °C 3.8 °C 1011.4 hPa SW 7.6 km/h 14.8 km/h 83 % 0.25 mm
08:10 6.3 °C 3.6 °C 1011.4 hPa WSW 7.4 km/h 9.7 km/h 83 % 0.25 mm
08:15 6.2 °C 3.7 °C 1011.4 hPa North 10.1 km/h 13 km/h 84 % 0.25 mm
08:20 6.2 °C 4.6 °C 1011.4 hPa North 8.7 km/h 11.1 km/h 89 % 0.25 mm
08:25 6.2 °C 4.1 °C 1011.4 hPa North 7.6 km/h 8 km/h 86 % 0.25 mm
08:30 6.2 °C 4.2 °C 1011.4 hPa North 5.3 km/h 5.6 km/h 87 % 0.51 mm
08:35 6.3 °C 4.3 °C 1011.4 hPa North 8.5 km/h 9.3 km/h 87 % 0.51 mm
08:40 6.3 °C 4.4 °C 1011.4 hPa WSW 7.7 km/h 11.1 km/h 88 % 0.51 mm
08:45 6.3 °C 4.5 °C 1011.4 hPa WSW 8.9 km/h 11.1 km/h 88 % 0.51 mm
08:50 6.3 °C 4.3 °C 1011.4 hPa WSW 8.2 km/h 11.1 km/h 87 % 0.51 mm
08:55 6.4 °C 4.4 °C 1011.4 hPa West 13.8 km/h 14.5 km/h 87 % 0.51 mm
09:00 6.4 °C 4.1 °C 1011.4 hPa West 11.9 km/h 14.8 km/h 85 % 0.25 mm
09:05 6.4 °C 3.9 °C 1011.4 hPa WSW 10.5 km/h 11.1 km/h 84 % 0.25 mm
09:10 6.4 °C 3.9 °C 1011.4 hPa WSW 9.5 km/h 13 km/h 84 % 0.25 mm
09:15 6.5 °C 3.8 °C 1011.4 hPa North 10.8 km/h 16.7 km/h 83 % 0.25 mm
09:20 6.6 °C 3.9 °C 1011.1 hPa West 7.1 km/h 7.4 km/h 83 % 0.25 mm
09:25 6.7 °C 4 °C 1011.4 hPa West 8.2 km/h 12.9 km/h 83 % 0.25 mm
09:30 6.7 °C 3.8 °C 1011.4 hPa West 7.1 km/h 9.3 km/h 82 % 0 mm
09:35 6.7 °C 3.9 °C 1011.1 hPa West 7.6 km/h 9.3 km/h 82 % 0 mm
09:40 6.8 °C 4 °C 1011.1 hPa West 11.1 km/h 13 km/h 82 % 0 mm
09:45 7 °C 3.9 °C 1011.1 hPa West 8.9 km/h 13 km/h 81 % 0 mm
09:50 7.1 °C 3.9 °C 1011.1 hPa WNW 10.3 km/h 14.8 km/h 80 % 0 mm
09:55 7.4 °C 4.2 °C 1011.1 hPa West 10.1 km/h 11.1 km/h 80 % 0 mm
10:00 7.6 °C 4.2 °C 1011.4 hPa West 13.8 km/h 18.5 km/h 79 % 0 mm
10:05 7.7 °C 4.1 °C 1011.4 hPa West 14.8 km/h 18.5 km/h 78 % 0 mm
10:10 7.4 °C 3.8 °C 1011.1 hPa West 13.5 km/h 16.1 km/h 78 % 0 mm
10:15 7.1 °C 3.3 °C 1011.1 hPa West 8 km/h 14.8 km/h 77 % 0 mm
10:20 7.2 °C 3.6 °C 1011.1 hPa West 12.4 km/h 16.7 km/h 78 % 0 mm
10:25 7.3 °C 3.7 °C 1011.1 hPa West 10.3 km/h 16.7 km/h 78 % 0 mm
10:30 7.4 °C 3.7 °C 1011.1 hPa WSW 8.4 km/h 14.5 km/h 77 % 0 mm
10:35 7.6 °C 3.7 °C 1010.7 hPa WSW 14 km/h 20.9 km/h 76 % 0 mm
10:40 7.9 °C 4.1 °C 1010.7 hPa West 15.9 km/h 18.5 km/h 77 % 0 mm
10:45 8 °C 3.7 °C 1010.7 hPa WSW 16.4 km/h 25.9 km/h 74 % 0 mm
10:50 8.2 °C 3.8 °C 1010.7 hPa WSW 14.8 km/h 18.5 km/h 74 % 0 mm
10:55 8.4 °C 4.1 °C 1010.7 hPa West 14 km/h 16.7 km/h 74 % 0 mm
11:00 8.7 °C 3.9 °C 1010.7 hPa WSW 17.9 km/h 22.2 km/h 72 % 0 mm
11:05 8.6 °C 3.8 °C 1010.7 hPa WNW 16.6 km/h 25.9 km/h 72 % 0 mm
11:10 8.3 °C 4.2 °C 1010.7 hPa WNW 12.4 km/h 16.7 km/h 75 % 0 mm
11:15 8 °C 3.7 °C 1010.7 hPa WSW 18.7 km/h 24.1 km/h 74 % 0 mm
11:20 7.8 °C 3.2 °C 1010.7 hPa WSW 15.1 km/h 20.4 km/h 73 % 0 mm
11:25 8.2 °C 4.1 °C 1010.7 hPa SW 14.2 km/h 18.5 km/h 75 % 0 mm
11:30 8.7 °C 4.3 °C 1010.4 hPa West 16.9 km/h 20.4 km/h 74 % 0 mm
11:35 8.7 °C 3.9 °C 1010.4 hPa North 18.3 km/h 24.1 km/h 72 % 0 mm
11:40 8.8 °C 3.8 °C 1010 hPa West 18.7 km/h 22.5 km/h 71 % 0 mm
11:45 9.1 °C 4.1 °C 1010 hPa North 18 km/h 20.9 km/h 71 % 0 mm
11:50 9.1 °C 3.7 °C 1010 hPa West 21.6 km/h 29.6 km/h 69 % 0 mm
11:55 9.4 °C 4 °C 1010 hPa North 23.3 km/h 25.9 km/h 69 % 0 mm
12:00 9.4 °C 3.4 °C 1009.7 hPa West 19.2 km/h 27.8 km/h 66 % 0 mm
12:05 9.6 °C 3.6 °C 1009.7 hPa North 16.4 km/h 31.5 km/h 66 % 0 mm
12:10 9.6 °C 3.6 °C 1009.7 hPa West 18.3 km/h 22.5 km/h 66 % 0 mm
12:15 9.3 °C 3.3 °C 1009.7 hPa WSW 20.9 km/h 29.6 km/h 66 % 0 mm
12:20 7.8 °C 2.7 °C 1010.4 hPa SSW 31.5 km/h 40.7 km/h 70 % 0.25 mm
12:25 6 °C 2.6 °C 1010 hPa North 16.4 km/h 16.4 km/h 79 % 0.51 mm
12:30 5.7 °C 3 °C 1010 hPa WSW 12.2 km/h 22.2 km/h 83 % 0.76 mm
12:35 5.9 °C 3.6 °C 1010 hPa North 8.4 km/h 14.8 km/h 85 % 0.76 mm
12:40 6.1 °C 3.9 °C 1010 hPa SW 13.4 km/h 18.5 km/h 86 % 0.76 mm
12:45 6.1 °C 3.7 °C 1010.4 hPa North 24.5 km/h 33.3 km/h 85 % 0.76 mm
12:51 5.4 °C 3.1 °C 1010.4 hPa SW 20 km/h 24.1 km/h 85 % 1.27 mm
13:22 5.1 °C 3.3 °C 1009.7 hPa West 14.6 km/h 20.4 km/h 88 % 2.03 mm
13:27 5.3 °C 3.4 °C 1009.7 hPa North 11.7 km/h 16.7 km/h 88 % 1.78 mm
13:32 5.4 °C 3.2 °C 1009.7 hPa North 15.8 km/h 24.1 km/h 86 % 1.52 mm
13:37 5.5 °C 3.3 °C 1009.7 hPa WSW 17.9 km/h 25.9 km/h 86 % 1.52 mm
13:42 5.8 °C 3.6 °C 1009.4 hPa WSW 13.5 km/h 19.3 km/h 86 % 1.52 mm
13:47 5.9 °C 3.6 °C 1009.4 hPa WSW 15.4 km/h 18.5 km/h 85 % 1.27 mm
13:52 6.2 °C 3.7 °C 1009.4 hPa WSW 16.6 km/h 22.2 km/h 84 % 1.27 mm
13:57 6.5 °C 3.8 °C 1009.4 hPa WSW 17.1 km/h 19.3 km/h 83 % 0.76 mm
14:02 6.9 °C 4.3 °C 1009.4 hPa SW 15.1 km/h 20.9 km/h 83 % 0.25 mm
14:07 7.2 °C 4.3 °C 1009.4 hPa SW 13.2 km/h 17.7 km/h 82 % 0 mm
14:12 7.4 °C 4.1 °C 1009.4 hPa SW 22.5 km/h 27.8 km/h 79 % 0 mm
14:17 7.4 °C 4.1 °C 1009.4 hPa WSW 18.5 km/h 25.9 km/h 79 % 0 mm
14:22 7.5 °C 4.3 °C 1009.4 hPa SSW 18 km/h 18.5 km/h 80 % 0 mm
14:27 7.7 °C 4.5 °C 1009.4 hPa North 14.2 km/h 22.5 km/h 80 % 0 mm
14:32 7.7 °C 3.9 °C 1009.4 hPa SW 20.6 km/h 24.1 km/h 77 % 0 mm
14:37 7.8 °C 4.2 °C 1009.4 hPa WSW 22.9 km/h 31.5 km/h 78 % 0 mm
14:42 7.7 °C 4.1 °C 1009.4 hPa North 17.4 km/h 27.8 km/h 78 % 0 mm
14:47 7.2 °C 3.8 °C 1009.7 hPa North 17.5 km/h 22.2 km/h 79 % 0.25 mm
14:52 6.6 °C 3.7 °C 1009.7 hPa SW 12.6 km/h 24.1 km/h 82 % 0.51 mm
14:57 6.3 °C 3.8 °C 1009.7 hPa SW 12.2 km/h 20.9 km/h 84 % 1.02 mm
15:02 6.1 °C 3.8 °C 1009.7 hPa North 22.7 km/h 27.8 km/h 85 % 1.27 mm
15:07 6.1 °C 3.7 °C 1009.7 hPa SW 17.5 km/h 22.2 km/h 85 % 1.52 mm
15:12 5.9 °C 3.6 °C 1009.7 hPa WSW 12.2 km/h 18.5 km/h 85 % 1.78 mm
15:17 5.8 °C 3.6 °C 1009.7 hPa SW 15.1 km/h 20.4 km/h 86 % 1.78 mm
15:22 5.8 °C 3.8 °C 1009.7 hPa North 13.2 km/h 22.5 km/h 87 % 1.78 mm
15:27 5.9 °C 4.1 °C 1009.7 hPa SW 10.8 km/h 16.7 km/h 88 % 1.78 mm
15:32 5.9 °C 3.9 °C 1010 hPa SW 17.7 km/h 25.9 km/h 87 % 1.78 mm
15:37 6.1 °C 4.1 °C 1010 hPa North 12.4 km/h 14.8 km/h 87 % 1.78 mm
15:42 6.2 °C 4 °C 1010 hPa WSW 17.2 km/h 20.4 km/h 86 % 1.78 mm
15:47 6.3 °C 4.1 °C 1009.7 hPa WSW 14.2 km/h 20.9 km/h 86 % 1.52 mm
15:52 6.4 °C 4.2 °C 1010 hPa SW 13.5 km/h 16.7 km/h 86 % 1.27 mm
15:55 6.4 °C 4.3 °C 1010 hPa WSW 14.6 km/h 20.4 km/h 86 % 1.02 mm
16:00 6.6 °C 4.4 °C 1010 hPa SW 14.2 km/h 20.4 km/h 86 % 0.76 mm
16:05 6.8 °C 4.7 °C 1010 hPa SW 11.3 km/h 18.5 km/h 86 % 0.51 mm
16:10 6.9 °C 4.6 °C 1010 hPa SSW 16.7 km/h 24.1 km/h 85 % 0.25 mm
16:15 6.9 °C 4.6 °C 1010 hPa WSW 15.4 km/h 29.6 km/h 85 % 0 mm
16:20 6.8 °C 4.5 °C 1010 hPa SW 17.4 km/h 22.2 km/h 85 % 0 mm
16:25 6.8 °C 4.4 °C 1010.4 hPa SW 14.5 km/h 20.4 km/h 85 % 0 mm
16:30 6.8 °C 4.6 °C 1010.4 hPa WSW 11.9 km/h 16.7 km/h 86 % 0 mm
16:35 6.7 °C 4.5 °C 1010.4 hPa SSW 18.7 km/h 29.6 km/h 86 % 0 mm
16:40 6.6 °C 4.4 °C 1010.4 hPa West 14.6 km/h 19.3 km/h 86 % 0 mm
16:45 6.6 °C 4.3 °C 1010.4 hPa SW 11.7 km/h 18.5 km/h 85 % 0 mm
16:50 6.6 °C 4.3 °C 1010.4 hPa SW 15 km/h 20.4 km/h 85 % 0 mm
16:55 6.6 °C 4.2 °C 1010.4 hPa SW 14.3 km/h 25.9 km/h 85 % 0 mm
17:00 6.5 °C 4.2 °C 1010.4 hPa SW 13.5 km/h 22.2 km/h 85 % 0 mm
17:02 6.4 °C 4.1 °C 1010.4 hPa SW 16.3 km/h 24.1 km/h 85 % 0 mm
17:07 6.3 °C 4 °C 1010.7 hPa WSW 15.9 km/h 24.1 km/h 85 % 0 mm
17:12 6.3 °C 3.8 °C 1010.7 hPa SW 10.5 km/h 19.3 km/h 84 % 0 mm
17:17 6.2 °C 3.7 °C 1010.4 hPa SW 12.6 km/h 22.5 km/h 84 % 0.25 mm
17:22 6.1 °C 3.6 °C 1010.4 hPa SW 9.3 km/h 14.5 km/h 84 % 0.25 mm
17:27 6 °C 3.5 °C 1010.4 hPa SW 10.5 km/h 18.5 km/h 84 % 0.25 mm
17:32 6 °C 3.7 °C 1010.4 hPa SW 7.4 km/h 13 km/h 85 % 0.25 mm
17:37 6 °C 3.7 °C 1010.4 hPa SW 8.9 km/h 14.8 km/h 85 % 0.25 mm
17:42 5.9 °C 3.8 °C 1010.4 hPa SW 3.7 km/h 5.6 km/h 86 % 0.25 mm
17:47 5.9 °C 3.7 °C 1010.4 hPa SW 5.1 km/h 8 km/h 86 % 0.25 mm
17:52 5.8 °C 3.7 °C 1010.4 hPa SW 7.4 km/h 9.3 km/h 86 % 0.25 mm
17:57 5.8 °C 3.8 °C 1010.7 hPa SW 10.5 km/h 13 km/h 87 % 0.25 mm
18:02 5.8 °C 3.8 °C 1010.7 hPa WSW 9.5 km/h 13 km/h 87 % 0.25 mm
18:07 5.8 °C 3.8 °C 1010.7 hPa WSW 11.1 km/h 18.5 km/h 87 % 0.25 mm
18:12 5.9 °C 3.9 °C 1010.7 hPa WSW 8 km/h 13 km/h 87 % 0.51 mm
18:17 5.8 °C 4 °C 1010.7 hPa West 10.6 km/h 16.7 km/h 88 % 0.51 mm
18:22 5.7 °C 3.8 °C 1010.7 hPa WSW 6.9 km/h 11.1 km/h 88 % 1.02 mm
18:27 5.6 °C 3.9 °C 1010.7 hPa WSW 8 km/h 12.9 km/h 89 % 1.02 mm
18:28 5.6 °C 3.9 °C 1010.7 hPa WSW 10.6 km/h 14.8 km/h 89 % 1.02 mm
18:33 5.6 °C 3.9 °C 1010.4 hPa WSW 8.9 km/h 13 km/h 89 % 1.27 mm
18:38 5.6 °C 4.1 °C 1010.4 hPa WSW 6.9 km/h 8 km/h 90 % 1.27 mm
18:43 5.7 °C 4.2 °C 1010.4 hPa WSW 6.3 km/h 8 km/h 90 % 1.27 mm
18:48 5.7 °C 4.2 °C 1010.4 hPa WSW 7.4 km/h 9.7 km/h 90 % 1.27 mm
18:53 5.7 °C 4.2 °C 1010.4 hPa WSW 7.9 km/h 11.1 km/h 90 % 1.27 mm
18:58 5.7 °C 4.2 °C 1010.4 hPa WSW 7.9 km/h 13 km/h 90 % 1.27 mm
19:03 5.7 °C 4.2 °C 1010.4 hPa WSW 6.8 km/h 9.7 km/h 90 % 1.52 mm
19:08 5.7 °C 4.2 °C 1010.4 hPa WSW 7.1 km/h 11.1 km/h 90 % 1.52 mm
19:13 5.7 °C 4.2 °C 1010.4 hPa WSW 5.8 km/h 8 km/h 90 % 1.27 mm
19:18 5.7 °C 4.4 °C 1010.4 hPa WSW 6.4 km/h 14.8 km/h 91 % 1.02 mm
19:23 5.8 °C 4.4 °C 1010.4 hPa WSW 6.6 km/h 11.1 km/h 91 % 0.76 mm
19:28 5.8 °C 4.4 °C 1010.4 hPa North 5.3 km/h 7.4 km/h 91 % 1.02 mm
19:33 5.9 °C 4.6 °C 1010.4 hPa WSW 12.7 km/h 18.5 km/h 91 % 0.76 mm
19:38 6 °C 4.7 °C 1010.4 hPa North 13 km/h 16.7 km/h 91 % 1.02 mm
19:43 6.2 °C 4.8 °C 1010.4 hPa WSW 10.3 km/h 16.7 km/h 91 % 1.02 mm
19:48 6.3 °C 4.9 °C 1010.4 hPa WSW 13.4 km/h 18.5 km/h 91 % 0.76 mm
19:53 6.3 °C 4.9 °C 1010.4 hPa WSW 12.4 km/h 16.7 km/h 91 % 0.76 mm
19:58 6.3 °C 4.9 °C 1010.4 hPa WSW 12.4 km/h 18.5 km/h 91 % 0.76 mm
20:03 6.3 °C 4.9 °C 1010.4 hPa West 16.9 km/h 18.5 km/h 91 % 0.51 mm
20:08 6.3 °C 4.9 °C 1010.4 hPa West 10.5 km/h 16.7 km/h 91 % 0.51 mm
20:13 6.3 °C 4.9 °C 1010.4 hPa North 13.8 km/h 22.2 km/h 91 % 0.51 mm
20:18 6.3 °C 4.9 °C 1010.4 hPa North 10.9 km/h 16.7 km/h 91 % 0.51 mm
20:23 6.3 °C 4.9 °C 1010.4 hPa WSW 8.7 km/h 13 km/h 91 % 0.51 mm
20:28 6.3 °C 4.9 °C 1010.4 hPa WSW 8.7 km/h 13 km/h 91 % 0.25 mm
20:33 6.3 °C 4.9 °C 1010.4 hPa North 10 km/h 18.5 km/h 91 % 0.25 mm
20:38 6.3 °C 4.9 °C 1010.4 hPa WSW 11.6 km/h 18.5 km/h 91 % 0 mm
20:43 6.3 °C 4.9 °C 1010.7 hPa SW 9 km/h 18.5 km/h 91 % 0 mm
20:48 6.3 °C 5.1 °C 1010.7 hPa WSW 12.1 km/h 14.8 km/h 92 % 0 mm
20:53 6.3 °C 5.1 °C 1010.7 hPa SW 11.6 km/h 20.4 km/h 92 % 0 mm
20:58 6.4 °C 5.2 °C 1011.1 hPa SW 13.8 km/h 18.5 km/h 92 % 0 mm
21:03 6.4 °C 5.2 °C 1011.1 hPa North 11.3 km/h 16.7 km/h 92 % 0 mm
21:08 6.5 °C 5.3 °C 1011.1 hPa SW 13.4 km/h 18.5 km/h 92 % 0 mm
21:13 6.6 °C 5.3 °C 1011.1 hPa SSW 7.7 km/h 13 km/h 92 % 0 mm
21:18 6.5 °C 5.3 °C 1011.1 hPa SW 11.3 km/h 18.5 km/h 92 % 0 mm
21:23 6.6 °C 5.3 °C 1011.4 hPa SSW 12.7 km/h 16.7 km/h 92 % 0 mm
21:28 6.6 °C 5.4 °C 1011.4 hPa WSW 12.9 km/h 18.5 km/h 92 % 0 mm
21:33 6.6 °C 5.4 °C 1011.4 hPa SW 11.1 km/h 19.3 km/h 92 % 0 mm
21:38 6.7 °C 5.4 °C 1011.4 hPa SW 15.9 km/h 22.2 km/h 92 % 0 mm
21:43 6.7 °C 5.5 °C 1011.4 hPa SW 12.4 km/h 18.5 km/h 92 % 0 mm
21:48 6.7 °C 5.5 °C 1011.7 hPa SW 20.1 km/h 25.9 km/h 92 % 0 mm
21:53 6.7 °C 5.5 °C 1011.7 hPa SW 13.4 km/h 16.1 km/h 92 % 0 mm
21:58 6.7 °C 5.5 °C 1011.7 hPa SW 10 km/h 18.5 km/h 92 % 0 mm
22:03 6.7 °C 5.5 °C 1011.7 hPa North 10.5 km/h 13 km/h 92 % 0 mm
22:08 6.8 °C 5.6 °C 1011.7 hPa North 14.5 km/h 22.2 km/h 92 % 0 mm
22:13 6.9 °C 5.7 °C 1011.7 hPa SW 16.1 km/h 20.4 km/h 92 % 0 mm
22:18 6.9 °C 5.7 °C 1011.7 hPa SW 15.3 km/h 22.2 km/h 92 % 0 mm
22:23 6.9 °C 5.6 °C 1011.7 hPa SSW 21.7 km/h 31.5 km/h 91 % 0 mm
22:28 6.9 °C 5.6 °C 1011.7 hPa SSW 20.6 km/h 27.8 km/h 91 % 0 mm
22:33 6.9 °C 5.6 °C 1011.7 hPa SW 21.6 km/h 29.6 km/h 91 % 0 mm
22:38 6.9 °C 5.6 °C 1011.7 hPa SW 15.8 km/h 24.1 km/h 91 % 0 mm
22:43 6.9 °C 5.5 °C 1011.7 hPa SW 11.7 km/h 18.5 km/h 91 % 0 mm
22:48 6.9 °C 5.5 °C 1011.7 hPa SSW 19 km/h 31.5 km/h 91 % 0 mm
22:53 6.8 °C 5.3 °C 1011.7 hPa SW 18.7 km/h 31.5 km/h 90 % 0 mm
22:58 6.8 °C 5.3 °C 1011.7 hPa SSW 13.8 km/h 22.2 km/h 90 % 0 mm
23:03 6.7 °C 5.2 °C 1011.7 hPa SW 9 km/h 18.5 km/h 90 % 0 mm
23:08 6.6 °C 5.1 °C 1011.7 hPa SSW 17.7 km/h 22.2 km/h 90 % 0 mm
23:13 6.6 °C 4.9 °C 1011.7 hPa SW 12.9 km/h 24.1 km/h 89 % 0 mm
23:32 6.4 °C 4.8 °C 1012.1 hPa Calm   22.5 km/h 89 % 0 mm
23:50 6.6 °C 4.9 °C 1012.1 hPa Calm   17.7 km/h 89 % 7.62 mm
23:55 6.6 °C 5.1 °C 1012.1 hPa SW 15.6 km/h 25.9 km/h 90 % 7.87 mm
Ararat Weather
Compliments of Weather Underground - 2.25 mb
Click here to send mail.


ABOUT

Live weather data from Ararat, Victoria, Australia, 3377
Data uploaded from Cumulus every 5 minutes to Weather Underground.
This site then downloads the raw data for formatting and display.
Metric and imperial data can be displayed. Graphs and historical data available.
Includes Sun and Moon times and rain image live from BOM.

Check out Ararat Weather on Facebook, Twitter and Google +

Help support ongoing costs by checking out the ads





Follow @AraratWeather